Time;durP1;ratioP1;P1;durP2;ratioP2;P2;SDS_P1;SDS_P2;PMS_P1;PMS_P2;Temp;Humidity;BMP_temperature;BMP_pressure;BME280_temperature;BME280_humidity;BME280_pressure;Samples;Min_cycle;Max_cycle;Signal;HPM_P1;HPM_P2
2022/05/24 06:47:42;;;;;;;7.18;3.85;;;18.50;99.90;;;;;;5032306;28;20420;-75
2022/05/24 06:50:10;;;;;;;5.18;4.20;;;18.60;99.90;;;;;;5016478;28;20116;-75
2022/05/24 06:52:37;;;;;;;7.00;3.47;;;18.80;99.90;;;;;;5009578;28;20057;-76
2022/05/24 06:55:04;;;;;;;5.97;4.22;;;19.00;99.90;;;;;;5007185;28;20025;-76
2022/05/24 06:57:30;;;;;;;6.68;4.43;;;19.40;99.90;;;;;;5013613;28;20913;-76
2022/05/24 07:02:45;;;;;;;8.40;4.15;;;20.10;99.90;;;;;;5012652;28;20068;-76
2022/05/24 07:05:18;;;;;;;5.68;3.63;;;20.30;99.90;;;;;;5011430;28;20781;-77
2022/05/24 07:07:45;;;;;;;5.40;3.92;;;21.30;99.10;;;;;;5009849;28;20568;-76
2022/05/24 07:10:20;;;;;;;4.85;3.97;;;22.00;96.90;;;;;;5042567;28;20068;-76
2022/05/24 07:12:59;;;;;;;8.45;4.18;;;22.00;96.30;;;;;;5040818;28;20022;-76
2022/05/24 07:15:33;;;;;;;8.57;3.92;;;22.10;96.30;;;;;;5011574;28;20534;-76
2022/05/24 07:18:01;;;;;;;5.43;4.05;;;23.00;95.40;;;;;;5007107;28;20044;-77
2022/05/24 07:20:28;;;;;;;4.30;3.55;;;24.40;92.70;;;;;;5012211;28;20018;-77
2022/05/24 07:23:24;;;;;;;7.60;3.55;;;25.30;91.20;;;;;;5006310;28;20729;-77
2022/05/24 07:25:52;;;;;;;5.38;3.30;;;26.60;88.30;;;;;;5005822;28;20013;-76
2022/05/24 07:28:24;;;;;;;3.75;3.38;;;28.10;82.10;;;;;;5012609;28;20021;-76
2022/05/24 07:30:55;;;;;;;6.15;3.42;;;29.50;77.40;;;;;;5007734;28;20059;-77
2022/05/24 07:33:21;;;;;;;8.23;3.58;;;29.40;74.70;;;;;;5011560;28;20021;-76
2022/05/24 07:35:47;;;;;;;10.38;3.30;;;29.00;74.40;;;;;;5006642;28;20028;-75
2022/05/24 07:38:13;;;;;;;5.28;3.63;;;29.90;72.70;;;;;;5010947;28;21007;-76
2022/05/24 07:46:13;;;;;;;5.50;3.55;;;28.90;71.10;;;;;;5006286;28;20029;-76
2022/05/24 07:48:40;;;;;;;6.88;3.40;;;29.20;71.10;;;;;;5012537;28;20037;-76
2022/05/24 07:51:07;;;;;;;7.05;2.83;;;30.10;69.60;;;;;;5006472;28;20030;-76
2022/05/24 07:53:34;;;;;;;8.30;4.10;;;31.20;67.30;;;;;;5011692;28;20025;-79
2022/05/24 07:56:01;;;;;;;7.72;3.70;;;32.30;63.80;;;;;;5006702;28;20377;-77
2022/05/24 07:58:28;;;;;;;6.38;3.17;;;32.60;61.80;;;;;;5002042;28;20088;-78
2022/05/24 08:00:57;;;;;;;5.70;3.33;;;33.30;61.30;;;;;;4994193;28;20026;-77
2022/05/24 08:03:26;;;;;;;3.50;3.03;;;33.10;59.80;;;;;;4998557;28;20022;-77
2022/05/24 08:05:59;;;;;;;5.45;3.28;;;33.10;58.60;;;;;;4993823;28;20491;-78
2022/05/24 08:08:39;;;;;;;10.60;3.35;;;32.30;59.90;;;;;;4996709;28;20379;-81
2022/05/24 08:11:07;;;;;;;6.93;2.83;;;32.60;59.00;;;;;;4994129;28;20018;-80
2022/05/24 08:13:36;;;;;;;5.93;3.25;;;32.90;59.60;;;;;;4997789;28;20103;-79
2022/05/24 08:16:02;;;;;;;5.18;3.28;;;33.30;58.10;;;;;;4992918;28;20018;-79
2022/05/24 08:18:30;;;;;;;4.88;2.88;;;32.70;59.20;;;;;;4998734;28;20041;-79
2022/05/24 08:21:04;;;;;;;6.68;3.40;;;32.40;58.70;;;;;;4993574;28;20026;-79
2022/05/24 08:23:30;;;;;;;5.07;3.10;;;32.60;58.80;;;;;;4997612;28;20173;-79
2022/05/24 08:26:02;;;;;;;3.83;3.10;;;32.20;58.60;;;;;;4993547;28;20025;-78
2022/05/24 08:28:29;;;;;;;4.78;3.80;;;32.80;57.60;;;;;;4997955;28;20466;-78
2022/05/24 08:30:56;;;;;;;6.78;3.38;;;33.60;56.90;;;;;;4993309;28;20022;-76
2022/05/24 08:33:23;;;;;;;4.43;3.45;;;33.30;56.40;;;;;;4997220;28;20014;-76
2022/05/24 08:35:51;;;;;;;6.45;3.63;;;30.70;59.00;;;;;;4994733;28;20129;-74
2022/05/24 08:38:17;;;;;;;5.25;3.10;;;30.00;62.10;;;;;;4997674;28;20068;-75
2022/05/24 08:40:44;;;;;;;8.15;4.00;;;31.30;60.40;;;;;;4996245;28;20412;-75
2022/05/24 08:43:48;;;;;;;5.55;3.95;;;29.70;61.30;;;;;;4992349;28;20894;-75
2022/05/24 08:49:15;;;;;;;5.88;3.60;;;28.50;65.20;;;;;;4992307;28;20859;-75
2022/05/24 08:51:56;;;;;;;6.70;3.83;;;27.70;67.00;;;;;;4996503;28;20041;-75
2022/05/24 08:54:32;;;;;;;7.15;3.65;;;27.30;68.00;;;;;;4992584;28;20045;-75
2022/05/24 08:57:13;;;;;;;7.53;4.05;;;27.30;68.80;;;;;;4987440;28;20026;-74
2022/05/24 08:59:56;;;;;;;8.45;4.07;;;27.80;67.30;;;;;;4996265;28;20045;-74
2022/05/24 09:02:23;;;;;;;8.45;4.50;;;26.20;70.60;;;;;;4997627;28;20076;-75
2022/05/24 09:04:52;;;;;;;5.20;3.40;;;25.10;73.40;;;;;;4997305;28;20064;-74
2022/05/24 09:08:15;;;;;;;6.13;4.28;;;24.90;76.20;;;;;;4997191;28;20153;-74
2022/05/24 09:11:04;;;;;;;6.43;4.40;;;24.70;76.20;;;;;;4968687;28;20022;-72
2022/05/24 09:14:07;;;;;;;9.68;4.15;;;24.30;77.20;;;;;;4996789;28;20526;-73
2022/05/24 09:17:05;;;;;;;7.10;4.38;;;25.20;75.80;;;;;;4997551;28;20113;-73
2022/05/24 09:19:35;;;;;;;4.88;3.90;;;24.80;76.50;;;;;;4997669;28;20117;-73
2022/05/24 09:22:03;;;;;;;7.60;4.05;;;25.30;76.80;;;;;;4992243;28;20034;-74
2022/05/24 09:24:34;;;;;;;5.90;3.53;;;26.30;74.20;;;;;;4997243;28;20113;-74
2022/05/24 09:27:17;;;;;;;7.05;3.70;;;28.00;71.70;;;;;;4990671;28;20018;-73
2022/05/24 09:30:02;;;;;;;8.90;4.18;;;28.10;69.30;;;;;;4996603;28;20053;-73
2022/05/24 09:32:48;;;;;;;8.37;4.23;;;28.50;68.90;;;;;;4994523;28;20036;-76
2022/05/24 09:35:21;;;;;;;11.52;4.38;;;29.20;67.50;;;;;;4991189;28;20364;-74
2022/05/24 09:38:13;;;;;;;8.75;4.45;;;28.80;67.90;;;;;;4992454;28;20147;-75
2022/05/24 09:41:07;;;;;;;7.03;4.65;;;28.70;67.00;;;;;;4993863;28;20026;-75
2022/05/24 09:43:36;;;;;;;9.00;4.80;;;27.30;68.60;;;;;;4993072;28;20026;-74
2022/05/24 09:46:26;;;;;;;8.35;4.65;;;25.80;72.70;;;;;;4991927;28;20026;-74
2022/05/24 09:49:03;;;;;;;8.85;5.05;;;24.30;77.00;;;;;;4995337;28;20513;-73
2022/05/24 09:51:40;;;;;;;7.65;4.32;;;24.00;80.10;;;;;;4995728;28;20022;-76
2022/05/24 09:54:30;;;;;;;7.82;4.93;;;24.00;80.60;;;;;;4991356;28;20037;-76
2022/05/24 09:57:13;;;;;;;7.82;4.60;;;24.30;80.00;;;;;;4989325;28;20025;-76
2022/05/24 10:00:08;;;;;;;7.18;5.03;;;24.20;79.50;;;;;;4995584;28;20030;-76
2022/05/24 10:02:38;;;;;;;7.43;5.35;;;23.80;81.30;;;;;;4996027;28;20030;-76
2022/05/24 10:05:27;;;;;;;10.38;4.97;;;23.30;82.90;;;;;;4992456;28;20041;-77
2022/05/24 10:08:18;;;;;;;7.38;4.85;;;23.20;84.40;;;;;;4994661;28;20018;-76
2022/05/24 10:10:56;;;;;;;9.05;5.55;;;23.20;84.80;;;;;;4995685;28;20048;-75
2022/05/24 10:13:50;;;;;;;9.65;5.10;;;23.00;85.60;;;;;;4994805;28;20026;-75
2022/05/24 10:16:30;;;;;;;10.05;5.18;;;23.00;85.70;;;;;;4989323;28;20032;-75
2022/05/24 10:19:15;;;;;;;9.20;4.90;;;23.20;86.10;;;;;;4991220;28;20032;-75
2022/05/24 10:22:02;;;;;;;6.32;4.65;;;23.40;85.70;;;;;;4995470;28;20056;-76
2022/05/24 10:25:08;;;;;;;9.05;4.50;;;23.80;85.00;;;;;;4996634;28;20485;-75
2022/05/24 10:27:58;;;;;;;6.75;4.40;;;23.80;84.80;;;;;;4993878;28;20050;-76
2022/05/24 10:30:48;;;;;;;7.05;4.47;;;23.80;85.60;;;;;;4992969;28;20693;-76
2022/05/24 10:40:27;;;;;;;7.30;4.50;;;23.10;87.00;;;;;;4992668;28;20072;-76
2022/05/24 10:43:02;;;;;;;5.93;4.60;;;23.10;87.50;;;;;;4995952;28;20018;-76
2022/05/24 10:45:52;;;;;;;7.93;4.70;;;23.30;86.80;;;;;;4995909;28;20041;-75
2022/05/24 10:48:57;;;;;;;6.20;4.72;;;23.10;87.50;;;;;;4989635;28;20025;-76
2022/05/24 10:51:32;;;;;;;9.18;4.75;;;23.60;86.30;;;;;;4993512;28;20122;-75
2022/05/24 10:54:28;;;;;;;7.15;3.95;;;23.70;87.20;;;;;;4991482;28;20025;-76
2022/05/24 10:57:03;;;;;;;6.30;4.00;;;23.70;86.30;;;;;;4994690;28;20090;-75
2022/05/24 10:59:32;;;;;;;7.82;4.40;;;23.70;87.10;;;;;;4996323;28;20098;-75
2022/05/24 11:02:10;;;;;;;7.53;4.38;;;23.70;87.30;;;;;;4991573;28;20030;-76
2022/05/24 11:04:49;;;;;;;8.02;4.90;;;24.00;86.40;;;;;;4994340;28;20068;-77
2022/05/24 11:07:20;;;;;;;7.18;4.00;;;24.00;87.50;;;;;;4989623;28;20061;-75
2022/05/24 11:10:03;;;;;;;8.18;4.13;;;24.00;86.20;;;;;;4993565;28;20029;-75
2022/05/24 11:12:32;;;;;;;7.88;4.05;;;23.90;86.00;;;;;;4994282;28;20060;-75
2022/05/24 11:15:14;;;;;;;9.05;4.35;;;23.90;86.30;;;;;;4991163;28;20026;-76
2022/05/24 11:17:40;;;;;;;6.05;3.35;;;23.70;86.20;;;;;;4995975;28;20030;-76
2022/05/24 11:20:07;;;;;;;6.45;3.95;;;23.80;87.50;;;;;;4991290;28;20056;-75
2022/05/24 11:22:38;;;;;;;7.28;3.60;;;23.90;85.70;;;;;;4990536;28;20030;-76
2022/05/24 11:25:28;;;;;;;5.80;3.28;;;24.00;87.40;;;;;;4991257;28;20122;-76
2022/05/24 11:28:07;;;;;;;6.10;3.85;;;24.50;85.30;;;;;;4999748;28;20024;-75
2022/05/24 11:30:42;;;;;;;4.32;3.92;;;24.40;84.20;;;;;;4995236;28;20026;-76
2022/05/24 11:33:29;;;;;;;5.80;3.83;;;24.00;85.00;;;;;;4998419;28;20092;-75
2022/05/24 11:36:24;;;;;;;4.40;3.60;;;23.60;86.60;;;;;;4997686;28;20038;-75
2022/05/24 11:38:51;;;;;;;6.85;4.20;;;23.90;86.40;;;;;;4994882;28;20053;-76
2022/05/24 11:41:29;;;;;;;6.55;3.40;;;23.50;86.10;;;;;;4996909;28;20105;-76
2022/05/24 11:43:58;;;;;;;7.47;4.25;;;23.40;87.60;;;;;;4995262;28;20027;-75
2022/05/24 11:46:46;;;;;;;5.00;3.15;;;23.40;87.30;;;;;;4997885;28;20029;-75
2022/05/24 11:49:21;;;;;;;5.80;3.67;;;23.10;88.20;;;;;;4997216;28;20033;-75
2022/05/24 11:51:49;;;;;;;9.32;4.43;;;23.40;88.10;;;;;;4992093;28;20057;-75
2022/05/24 11:54:18;;;;;;;4.43;3.50;;;23.40;87.20;;;;;;4997884;28;20514;-75
2022/05/24 11:57:06;;;;;;;5.85;4.07;;;23.40;87.80;;;;;;4991807;28;20117;-75
2022/05/24 11:59:44;;;;;;;7.40;3.80;;;23.70;86.60;;;;;;4992745;28;20028;-75
2022/05/24 12:02:33;;;;;;;5.10;3.70;;;23.60;87.00;;;;;;4997778;28;20087;-76
2022/05/24 12:08:25;;;;;;;5.80;3.80;;;23.90;85.80;;;;;;4992690;28;20463;-75
2022/05/24 12:11:13;;;;;;;6.63;4.00;;;23.30;86.50;;;;;;4993911;28;20029;-75
2022/05/24 12:13:56;;;;;;;10.07;4.68;;;22.90;87.80;;;;;;4994234;28;20038;-75
2022/05/24 12:16:46;;;;;;;8.38;3.67;;;22.70;88.70;;;;;;4998348;28;20042;-75
2022/05/24 12:19:37;;;;;;;6.28;3.63;;;22.50;90.00;;;;;;4999168;28;20034;-75
2022/05/24 12:22:06;;;;;;;7.80;4.07;;;22.40;90.40;;;;;;4997996;28;20014;-76
2022/05/24 12:24:40;;;;;;;5.20;3.38;;;22.40;90.20;;;;;;4993288;28;20125;-76
2022/05/24 12:27:21;;;;;;;8.95;3.65;;;22.40;90.60;;;;;;4996413;28;20057;-75
2022/05/24 12:29:57;;;;;;;6.10;3.90;;;22.50;90.60;;;;;;4992572;28;20203;-76
2022/05/24 12:32:39;;;;;;;5.05;3.55;;;22.30;90.10;;;;;;4996764;28;20022;-76
2022/05/24 12:35:08;;;;;;;5.45;4.05;;;22.30;90.30;;;;;;4998151;28;20026;-76
2022/05/24 12:37:36;;;;;;;6.65;3.80;;;22.00;90.70;;;;;;4993069;28;20022;-75
2022/05/24 12:40:18;;;;;;;8.07;4.18;;;22.10;90.70;;;;;;4998337;28;20087;-75
2022/05/24 12:42:48;;;;;;;5.43;3.92;;;22.10;90.70;;;;;;4992052;28;20037;-75
2022/05/24 12:45:21;;;;;;;6.05;3.42;;;22.00;91.00;;;;;;4997187;28;20022;-76
2022/05/24 12:47:52;;;;;;;7.10;4.60;;;22.00;91.20;;;;;;4990272;28;20218;-75
2022/05/24 12:50:37;;;;;;;8.23;4.25;;;21.90;91.10;;;;;;4998273;28;20022;-76
2022/05/24 12:53:23;;;;;;;6.60;4.05;;;22.10;91.00;;;;;;4997679;28;20666;-77
2022/05/24 12:56:02;;;;;;;6.22;3.75;;;22.10;91.00;;;;;;4991859;28;20014;-77
2022/05/24 12:58:36;;;;;;;7.82;4.28;;;22.00;91.30;;;;;;4996689;28;21604;-76
2022/05/24 13:01:22;;;;;;;5.45;4.20;;;22.10;91.10;;;;;;4996072;28;20025;-76
2022/05/24 13:04:12;;;;;;;9.00;4.82;;;21.90;91.40;;;;;;4993732;28;20025;-76
2022/05/24 13:06:45;;;;;;;5.65;4.10;;;21.60;92.00;;;;;;4993079;28;20030;-77
2022/05/24 13:09:42;;;;;;;6.75;4.30;;;21.60;92.30;;;;;;4998399;28;20357;-77
2022/05/24 13:12:10;;;;;;;10.85;5.68;;;21.60;92.30;;;;;;4996551;28;20033;-76
2022/05/24 13:14:57;;;;;;;7.55;4.82;;;21.70;92.20;;;;;;4992408;28;20026;-76
2022/05/24 13:17:24;;;;;;;;;;;21.80;92.20;;;;;;4996476;28;20030;-76
2022/05/24 13:20:06;;;;;;;6.72;4.68;;;22.00;91.70;;;;;;4992168;28;20269;-76
2022/05/24 13:22:45;;;;;;;8.48;4.10;;;22.30;91.60;;;;;;4997337;28;20030;-77
2022/05/24 13:25:21;;;;;;;7.78;4.25;;;22.00;91.40;;;;;;4996497;28;20032;-76
2022/05/24 13:27:59;;;;;;;7.15;4.10;;;21.80;92.10;;;;;;4992584;28;20021;-75
2022/05/24 13:33:48;;;;;;;8.93;4.88;;;21.80;92.30;;;;;;4996564;28;20117;-75
2022/05/24 13:36:18;;;;;;;9.70;4.70;;;21.60;92.20;;;;;;4996239;28;20641;-74
2022/05/24 13:39:04;;;;;;;8.65;4.78;;;21.40;92.60;;;;;;4993427;28;20061;-75
2022/05/24 13:42:01;;;;;;;5.68;5.10;;;21.60;92.50;;;;;;4995935;28;20117;-76
2022/05/24 13:44:39;;;;;;;8.48;6.50;;;21.60;92.50;;;;;;4995128;28;20048;-75
2022/05/24 13:47:26;;;;;;;7.00;4.60;;;21.80;92.50;;;;;;4994554;28;20051;-77
2022/05/24 13:49:57;;;;;;;6.35;4.72;;;22.00;92.10;;;;;;4992317;28;20025;-75
2022/05/24 13:52:36;;;;;;;6.30;3.97;;;22.00;92.10;;;;;;4993679;28;20049;-75
2022/05/24 13:55:13;;;;;;;8.00;4.30;;;22.10;92.00;;;;;;4990406;28;20026;-75
2022/05/24 13:58:05;;;;;;;9.40;4.63;;;22.50;91.70;;;;;;4993566;28;20113;-76
2022/05/24 14:00:48;;;;;;;6.15;4.22;;;22.70;91.20;;;;;;5000603;28;20057;-76
2022/05/24 14:03:54;;;;;;;5.40;4.43;;;22.90;90.80;;;;;;4996473;28;20034;-76
2022/05/24 14:06:25;;;;;;;6.45;4.97;;;22.70;90.80;;;;;;4992803;28;20038;-75
2022/05/24 14:08:56;;;;;;;7.20;4.38;;;22.50;90.90;;;;;;4992752;28;20052;-75
2022/05/24 14:11:26;;;;;;;5.20;4.15;;;22.60;90.70;;;;;;4996430;28;20026;-76
2022/05/24 14:13:58;;;;;;;4.93;4.13;;;22.60;91.10;;;;;;4992428;28;20029;-76
2022/05/24 14:16:31;;;;;;;8.88;4.60;;;22.40;91.10;;;;;;4994385;28;20030;-75
2022/05/24 14:18:58;;;;;;;6.82;4.47;;;22.60;90.80;;;;;;4991391;28;20840;-75
2022/05/24 14:21:33;;;;;;;7.03;4.28;;;22.70;90.50;;;;;;4995060;28;20030;-76
2022/05/24 14:24:00;;;;;;;9.07;4.85;;;22.60;90.80;;;;;;4990500;28;20033;-76
2022/05/24 14:26:30;;;;;;;6.10;4.38;;;22.60;91.10;;;;;;4995005;28;20022;-75
2022/05/24 14:28:56;;;;;;;8.18;4.45;;;22.40;90.80;;;;;;4991721;28;20533;-76
2022/05/24 14:31:23;;;;;;;7.03;4.38;;;22.40;91.50;;;;;;4995335;28;20018;-76
2022/05/24 14:33:53;;;;;;;6.47;4.72;;;22.60;91.40;;;;;;4992178;28;20021;-75
2022/05/24 14:36:28;;;;;;;6.47;4.43;;;22.50;91.10;;;;;;4995798;28;20029;-76
2022/05/24 14:38:54;;;;;;;7.80;4.60;;;22.50;90.90;;;;;;4992464;28;20022;-76
2022/05/24 14:41:28;;;;;;;7.10;4.20;;;22.40;90.90;;;;;;4995513;28;20022;-76
2022/05/24 14:43:59;;;;;;;8.18;4.18;;;22.40;91.30;;;;;;4990542;28;20026;-74
2022/05/24 14:46:26;;;;;;;5.35;4.40;;;22.40;91.10;;;;;;4993997;28;20045;-73
2022/05/24 14:48:53;;;;;;;7.20;4.07;;;22.50;91.10;;;;;;4991424;28;20026;-73
2022/05/24 14:51:26;;;;;;;7.55;4.72;;;22.40;91.20;;;;;;4995674;28;20017;-73
2022/05/24 14:53:53;;;;;;;7.10;4.95;;;22.20;91.30;;;;;;4991150;28;20018;-74
2022/05/24 14:56:19;;;;;;;7.20;4.40;;;21.90;91.60;;;;;;4995596;28;20029;-73
2022/05/24 14:58:45;;;;;;;5.20;4.68;;;21.90;91.80;;;;;;4990051;28;20018;-74
2022/05/24 15:01:12;;;;;;;5.35;4.72;;;21.80;92.10;;;;;;4993741;28;20033;-76
2022/05/24 15:03:37;;;;;;;5.50;4.00;;;21.70;92.10;;;;;;4995468;28;20037;-73
2022/05/24 15:06:04;;;;;;;5.93;5.00;;;21.70;92.40;;;;;;4990808;28;20025;-74
2022/05/24 15:17:02;;;;;;;6.38;4.15;;;21.60;92.10;;;;;;4994078;28;20032;-75
2022/05/24 15:19:29;;;;;;;6.03;4.75;;;21.60;92.50;;;;;;4998051;28;20033;-73
2022/05/24 15:21:57;;;;;;;5.68;4.72;;;21.60;92.40;;;;;;4995707;28;20064;-74
2022/05/24 15:24:31;;;;;;;5.78;4.50;;;21.60;92.40;;;;;;4998315;28;20029;-76
2022/05/24 15:27:04;;;;;;;8.32;4.57;;;21.50;92.20;;;;;;4993064;28;20485;-75
2022/05/24 15:29:34;;;;;;;7.18;4.10;;;21.40;92.20;;;;;;5000546;28;21037;-76
2022/05/24 15:32:04;;;;;;;9.02;4.43;;;21.50;92.30;;;;;;4994157;28;20490;-75
2022/05/24 15:34:33;;;;;;;5.95;4.15;;;21.60;92.20;;;;;;4998947;28;20037;-73
2022/05/24 15:36:59;;;;;;;4.97;3.92;;;21.70;92.00;;;;;;4994367;28;20195;-73
2022/05/24 15:39:26;;;;;;;7.30;5.15;;;21.60;91.90;;;;;;4997811;28;20143;-73
2022/05/24 15:41:53;;;;;;;6.32;4.53;;;21.60;91.90;;;;;;4992819;28;20652;-73
2022/05/24 15:44:21;;;;;;;4.72;4.03;;;21.70;91.80;;;;;;4998122;28;20030;-73
2022/05/24 15:46:47;;;;;;;7.25;4.38;;;21.60;92.10;;;;;;4991820;28;20036;-73
2022/05/24 15:49:12;;;;;;;6.28;4.38;;;21.60;92.10;;;;;;4995407;28;20037;-75
2022/05/24 15:51:39;;;;;;;5.85;4.30;;;21.40;92.00;;;;;;4997798;28;20045;-75
2022/05/24 15:54:08;;;;;;;7.85;4.15;;;21.30;92.40;;;;;;4992926;28;20400;-74
2022/05/24 15:56:35;;;;;;;7.60;4.55;;;21.40;92.20;;;;;;4996722;28;20030;-74
2022/05/24 15:59:00;;;;;;;6.30;3.88;;;21.30;92.20;;;;;;4993796;28;20029;-75
2022/05/24 16:01:28;;;;;;;6.93;4.50;;;21.10;92.60;;;;;;4998451;28;20024;-76
2022/05/24 16:03:55;;;;;;;7.95;5.03;;;21.10;92.40;;;;;;4994621;28;20029;-75
2022/05/24 16:11:55;;;;;;;5.32;4.70;;;21.00;92.50;;;;;;4993193;28;20682;-74
2022/05/24 16:14:35;;;;;;;7.65;4.57;;;21.00;92.00;;;;;;4997710;28;20022;-72
2022/05/24 16:17:03;;;;;;;4.85;3.97;;;21.10;91.90;;;;;;4992047;28;20017;-73
2022/05/24 16:19:32;;;;;;;8.23;4.35;;;20.80;91.90;;;;;;4996077;28;20033;-74
2022/05/24 16:21:59;;;;;;;7.40;4.03;;;20.90;91.80;;;;;;4993763;28;20034;-74
2022/05/24 16:24:26;;;;;;;6.95;4.30;;;21.00;92.00;;;;;;4996759;28;20044;-73
2022/05/24 16:27:03;;;;;;;6.45;4.35;;;20.90;92.10;;;;;;4992915;28;20026;-80
2022/05/24 16:29:29;;;;;;;5.55;4.18;;;20.80;92.20;;;;;;5008426;28;20049;-80
2022/05/24 16:31:57;;;;;;;6.18;4.25;;;20.80;92.20;;;;;;5003800;28;20659;-81
2022/05/24 16:34:23;;;;;;;10.48;4.32;;;20.80;92.10;;;;;;5005353;28;20058;-78
2022/05/24 16:36:51;;;;;;;7.63;4.28;;;20.90;92.10;;;;;;4994754;28;20025;-78
2022/05/24 16:39:17;;;;;;;4.43;4.03;;;20.90;92.10;;;;;;4998173;28;20068;-78
2022/05/24 16:41:43;;;;;;;7.15;4.55;;;20.80;92.20;;;;;;4997867;28;20037;-78
2022/05/24 16:44:15;;;;;;;6.07;4.30;;;20.80;92.80;;;;;;4994125;28;20614;-78
2022/05/24 16:46:41;;;;;;;5.18;4.07;;;20.70;92.90;;;;;;5000444;28;20097;-77
2022/05/24 16:49:07;;;;;;;6.80;4.32;;;20.50;94.40;;;;;;4994318;28;20057;-79
2022/05/24 16:51:35;;;;;;;8.35;4.60;;;20.30;94.60;;;;;;4996856;28;20022;-72
2022/05/24 16:58:42;;;;;;;10.90;4.50;;;20.20;95.00;;;;;;4992889;28;20022;-73
2022/05/24 16:59:35;;;;;;;5.50;4.10;;;20.00;96.00;;;;;;4997310;28;19952;-72
2022/05/24 17:02:01;;;;;;;7.97;5.25;;;20.00;96.40;;;;;;4993033;28;20029;-73
2022/05/24 17:04:27;;;;;;;5.88;5.00;;;20.00;96.90;;;;;;4996793;28;20045;-72
2022/05/24 17:06:54;;;;;;;9.38;4.53;;;19.90;97.30;;;;;;4992132;28;20034;-73
2022/05/24 17:09:19;;;;;;;7.60;5.57;;;19.80;99.30;;;;;;4995035;28;20064;-73
2022/05/24 17:11:46;;;;;;;7.65;5.80;;;19.70;99.90;;;;;;4994223;28;20165;-72
2022/05/24 17:14:11;;;;;;;9.27;5.22;;;19.80;99.90;;;;;;4993601;28;20109;-72
2022/05/24 17:16:38;;;;;;;11.90;5.93;;;19.70;99.90;;;;;;4995636;28;20121;-72
2022/05/24 17:19:04;;;;;;;6.95;5.85;;;19.70;99.90;;;;;;4991838;28;20258;-73
2022/05/24 17:21:32;;;;;;;10.00;6.70;;;19.70;99.90;;;;;;4993915;28;20021;-72
2022/05/24 17:23:58;;;;;;;6.88;6.18;;;19.60;99.90;;;;;;4990427;28;20343;-72
2022/05/24 17:26:25;;;;;;;9.43;6.53;;;19.50;99.90;;;;;;4995136;28;20513;-73
2022/05/24 17:28:51;;;;;;;6.97;6.28;;;19.50;99.90;;;;;;4990053;28;20257;-73
2022/05/24 17:31:17;;;;;;;11.55;6.97;;;19.60;99.90;;;;;;4994224;28;20025;-73
2022/05/24 17:33:43;;;;;;;8.75;6.75;;;19.60;99.90;;;;;;4994374;28;20647;-73
2022/05/24 17:36:11;;;;;;;10.48;6.45;;;19.60;99.90;;;;;;4991789;28;20328;-73
2022/05/24 17:38:38;;;;;;;10.73;7.50;;;19.60;99.90;;;;;;4994250;28;20057;-72
2022/05/24 17:41:10;;;;;;;9.27;7.38;;;19.60;99.90;;;;;;4989295;28;20092;-72
2022/05/24 17:43:39;;;;;;;9.43;7.03;;;19.60;99.90;;;;;;4995166;28;20033;-73
2022/05/24 17:46:08;;;;;;;8.73;6.75;;;19.60;99.90;;;;;;4992949;28;20121;-73
2022/05/24 17:48:37;;;;;;;7.53;6.72;;;19.60;99.90;;;;;;4993676;28;20034;-72
2022/05/24 17:51:04;;;;;;;10.38;7.43;;;19.60;99.90;;;;;;4990759;28;20021;-73
2022/05/24 17:53:31;;;;;;;12.63;8.50;;;19.60;99.90;;;;;;4999161;28;20037;-73
2022/05/24 17:55:57;;;;;;;8.82;7.88;;;19.60;99.90;;;;;;4992166;28;20099;-73
2022/05/24 17:58:25;;;;;;;19.98;11.90;;;19.70;99.90;;;;;;4992511;28;20530;-73
2022/05/24 18:00:51;;;;;;;17.33;12.13;;;19.70;99.90;;;;;;4990651;28;20014;-72
2022/05/24 18:03:18;;;;;;;9.98;8.40;;;19.70;99.90;;;;;;4992811;28;20022;-72
2022/05/24 18:05:50;;;;;;;9.35;7.78;;;19.70;99.90;;;;;;4994980;28;20033;-72
2022/05/24 18:08:16;;;;;;;10.93;7.38;;;19.70;99.90;;;;;;4995449;28;20488;-72
2022/05/24 18:10:42;;;;;;;8.85;7.18;;;19.70;99.90;;;;;;4995895;28;20029;-72
2022/05/24 18:13:09;;;;;;;11.52;8.63;;;19.70;99.90;;;;;;4988949;28;20104;-72
2022/05/24 18:15:37;;;;;;;8.73;7.60;;;19.70;99.90;;;;;;4991273;28;20390;-71
2022/05/24 18:18:03;;;;;;;10.88;6.82;;;19.60;99.90;;;;;;4988592;28;20551;-71
2022/05/24 18:20:32;;;;;;;11.35;7.80;;;19.60;99.90;;;;;;4994136;28;20095;-70
2022/05/24 18:23:14;;;;;;;9.65;7.90;;;19.60;99.90;;;;;;4988166;28;20057;-73
2022/05/24 18:34:07;;;;;;;8.88;7.95;;;19.50;99.90;;;;;;4991993;28;20361;-72
2022/05/24 18:36:39;;;;;;;11.43;8.50;;;19.40;99.90;;;;;;4994762;28;20057;-72
2022/05/24 18:39:06;;;;;;;11.02;8.60;;;19.40;99.90;;;;;;4992920;28;20087;-73
2022/05/24 18:41:38;;;;;;;9.38;8.38;;;19.30;99.90;;;;;;4998167;28;20057;-73
2022/05/24 18:44:05;;;;;;;10.85;8.48;;;19.20;99.90;;;;;;5001144;28;20088;-73
2022/05/24 18:46:48;;;;;;;11.93;8.07;;;19.10;99.90;;;;;;5002902;28;20045;-73
2022/05/24 18:49:14;;;;;;;10.48;8.95;;;19.10;99.90;;;;;;4991076;28;20065;-73
2022/05/24 18:51:40;;;;;;;10.00;8.80;;;19.10;99.90;;;;;;4994802;28;20053;-72
2022/05/24 18:54:06;;;;;;;11.82;8.93;;;19.10;99.90;;;;;;4990337;28;20044;-72
2022/05/24 18:56:33;;;;;;;11.10;8.30;;;19.10;99.90;;;;;;4993493;28;20553;-72
2022/05/24 18:59:00;;;;;;;9.88;7.80;;;19.00;99.90;;;;;;4990936;28;20295;-73
2022/05/24 19:01:25;;;;;;;11.68;7.53;;;19.00;99.90;;;;;;4997540;28;20034;-72
2022/05/24 19:03:52;;;;;;;8.27;6.20;;;18.90;99.90;;;;;;4996175;28;20053;-72
2022/05/24 19:06:17;;;;;;;5.30;4.72;;;18.90;99.90;;;;;;4992205;28;20026;-73
2022/05/24 19:08:44;;;;;;;5.15;4.03;;;18.80;99.90;;;;;;4997683;28;20014;-72
2022/05/24 19:11:10;;;;;;;5.45;3.45;;;18.70;99.90;;;;;;4990836;28;20076;-72
2022/05/24 19:13:35;;;;;;;3.83;3.20;;;18.60;99.90;;;;;;4996296;28;20034;-72
2022/05/24 19:16:07;;;;;;;3.53;2.53;;;18.50;99.90;;;;;;4997805;28;20026;-72
2022/05/24 19:18:35;;;;;;;2.72;2.30;;;18.40;99.90;;;;;;4997977;28;20025;-73
2022/05/24 19:21:03;;;;;;;2.38;2.00;;;18.30;99.90;;;;;;4996681;28;20026;-73
2022/05/24 19:23:31;;;;;;;3.97;2.00;;;18.30;99.90;;;;;;4996826;28;20021;-73
2022/05/24 19:26:00;;;;;;;11.93;2.90;;;18.30;99.90;;;;;;4994192;28;20057;-77
2022/05/24 19:28:33;;;;;;;6.57;2.30;;;18.30;99.90;;;;;;4994221;28;20041;-77
2022/05/24 19:31:04;;;;;;;2.42;2.20;;;18.30;99.90;;;;;;4996079;28;20018;-77
2022/05/24 19:33:31;;;;;;;2.53;2.03;;;18.10;99.90;;;;;;4994381;28;20030;-77
2022/05/24 19:35:57;;;;;;;4.20;1.90;;;18.10;99.90;;;;;;4994558;28;20055;-77
2022/05/24 19:41:40;;;;;;;3.90;2.22;;;18.00;99.90;;;;;;4991547;28;20554;-77
2022/05/24 19:41:46;;;;;;;2.05;1.85;;;17.90;99.90;;;;;;4994659;28;20454;-79
2022/05/24 19:44:39;;;;;;;2.42;1.75;;;17.20;99.90;;;;;;4995865;28;20145;-78
2022/05/24 19:47:05;;;;;;;2.88;2.15;;;17.90;99.90;;;;;;4990237;28;20108;-77
2022/05/24 19:49:35;;;;;;;2.10;1.80;;;17.80;99.90;;;;;;4996223;28;20115;-77
2022/05/24 19:52:02;;;;;;;2.30;1.75;;;17.70;99.90;;;;;;4996036;28;20018;-77
2022/05/24 19:54:29;;;;;;;2.55;1.90;;;17.70;99.90;;;;;;4997044;28;20045;-77
2022/05/24 19:56:57;;;;;;;2.50;1.60;;;17.70;99.90;;;;;;4998859;28;20021;-77
2022/05/24 19:59:24;;;;;;;2.08;1.90;;;17.60;99.90;;;;;;4994827;28;20104;-77
2022/05/24 20:01:56;;;;;;;2.17;1.98;;;17.60;99.90;;;;;;4998045;28;20621;-77
2022/05/24 20:04:26;;;;;;;2.83;1.77;;;17.50;99.90;;;;;;4992762;28;20026;-77
2022/05/24 20:06:58;;;;;;;1.67;1.50;;;17.50;99.90;;;;;;4997136;28;20053;-77
2022/05/24 20:09:25;;;;;;;3.05;2.25;;;17.40;99.90;;;;;;4996012;28;20024;-77
2022/05/24 20:11:51;;;;;;;2.95;1.70;;;17.40;99.90;;;;;;4998310;28;20522;-77
2022/05/24 20:14:19;;;;;;;2.53;1.88;;;17.30;99.90;;;;;;4994019;28;20014;-77
2022/05/24 20:16:46;;;;;;;2.45;1.90;;;17.30;99.90;;;;;;4998382;28;20040;-77
2022/05/24 20:19:21;;;;;;;2.10;1.63;;;17.30;99.90;;;;;;4994772;28;20033;-76
2022/05/24 20:21:47;;;;;;;2.08;1.88;;;17.30;99.90;;;;;;4995750;28;20470;-77
2022/05/24 20:24:13;;;;;;;5.35;2.05;;;17.30;99.90;;;;;;4992156;28;20418;-76
2022/05/24 20:26:41;;;;;;;2.97;1.48;;;17.20;99.90;;;;;;4997484;28;20033;-77
2022/05/24 20:29:11;;;;;;;1.83;1.50;;;17.20;99.90;;;;;;4994447;28;20691;-79
2022/05/24 20:31:39;;;;;;;12.27;7.15;;;17.10;99.90;;;;;;4996275;28;20482;-79
2022/05/24 20:34:12;;;;;;;12.65;6.00;;;17.10;99.90;;;;;;4993878;28;20029;-80
2022/05/24 20:36:38;;;;;;;6.55;4.03;;;17.10;99.90;;;;;;4997290;28;20026;-78
2022/05/24 20:39:07;;;;;;;1.88;1.40;;;17.10;99.90;;;;;;4995685;28;20458;-80
2022/05/24 20:41:33;;;;;;;2.03;1.55;;;17.10;99.90;;;;;;4998769;28;20113;-79
2022/05/24 20:43:59;;;;;;;1.73;1.60;;;17.10;99.90;;;;;;4998118;28;20455;-81
2022/05/24 20:46:24;;;;;;;1.73;1.40;;;17.00;99.90;;;;;;4993262;28;20228;-78
2022/05/24 20:48:55;;;;;;;3.17;1.50;;;17.00;99.90;;;;;;4998043;28;20114;-79
2022/05/24 20:51:21;;;;;;;3.72;1.15;;;17.00;99.90;;;;;;4994692;28;20252;-79
2022/05/24 20:53:52;;;;;;;4.53;1.60;;;17.00;99.90;;;;;;4997960;28;20021;-81